Latest Coastal Weather Observations for Cocos Island

IDW60701

Issued at 3:32 am WST Tuesday 26 May 2015 (issued every 10 minutes, with the page automatically refreshed every 10 minutes)

About coastal observations | Map of coastal stations | Coastal observations for WA | Marine services | Other Formats
Station Details ID: 200284 Name: COCOS ISLAND AIRPORT Lat: -12.19 Lon: 96.83 Height: 3.0 m
Data from the previous 72 hours. | See also: Recent months at Cocos Island
Date/Time
WST
Temp

°C
Wind Pressure Rain
since 9am
mm
Weather Cloud Vis
km
Sea
Height
m
Swell
Dir
 
Speed
knots
Gust
knots
hPa Trend Height
m
Period
s
Dir
26/03:30am 26.7 E 10 13 1013.4 - 0.2 - Partly cloudy 10 - - - -
26/03:00am 26.8 E 9 12 1013.8 - 0.2 - Partly cloudy 10 - - - -
26/02:30am 26.8 E 9 11 1014.2 - 0.2 - - 10 - - - -
26/02:00am 27.0 E 10 14 1014.5 - 0.2 - Cloudy 10 - - - -
26/01:30am 27.0 E 11 14 1014.8 - 0.2 - Partly cloudy 10 - - - -
26/01:00am 27.1 E 11 16 1014.9 - 0.2 - Partly cloudy 10 - - - -
26/12:30am 27.0 ESE 13 17 1014.7 - 0.2 - - 10 - - - -
26/12:00am 27.0 ESE 15 20 1014.6 - 0.2 - - 10 - - - -
 
Date/Time
WST
Temp

°C
Wind Pressure Rain
since 9am
mm
Weather Cloud Vis
km
Sea
Height
m
Swell
Dir
 
Speed
knots
Gust
knots
hPa Trend Height
m
Period
s
Dir
25/11:30pm 27.0 ESE 12 17 1014.7 - 0.2 - Partly cloudy 10 - - - -
25/11:00pm 27.2 ESE 14 19 1014.7 - 0.2 - Mostly clear 10 - - - -
25/10:30pm 27.1 ESE 14 17 1014.8 - 0.2 - Partly cloudy 10 - - - -
25/10:00pm 27.0 ESE 12 16 1015.0 - 0.2 - Partly cloudy 10 - - - -
25/09:30pm 27.1 ESE 11 15 1015.0 - 0.2 - Partly cloudy 10 - - - -
25/09:00pm 27.1 ESE 13 17 1014.7 - 0.2 - Partly cloudy 10 - - - -
25/08:30pm 27.1 SE 13 17 1014.2 - 0.2 - Partly cloudy 10 - - - -
25/08:00pm 27.1 ESE 14 18 1013.7 - 0.2 - - 10 - - - -
25/07:30pm 27.2 ESE 15 19 1013.4 - 0.2 - Partly cloudy 10 - - - -
25/07:00pm 27.2 ESE 13 17 1013.3 - 0.2 - Partly cloudy 10 - - - -
25/06:30pm 27.3 ESE 16 20 1012.8 - 0.2 - Partly cloudy 10 - - - -
25/06:00pm 27.3 ESE 15 21 1012.3 - 0.2 - Mostly clear 10 - - - -
25/05:30pm 27.5 SE 17 21 1011.9 - 0.2 - Mostly clear 10 - - - -
25/05:00pm 27.5 SE 19 23 1011.6 - 0.2 Fine Mostly cloudy 20 - - - -
25/04:30pm 27.5 SE 17 24 1011.5 - 0.2 - Mostly clear 10 - - - -
25/04:00pm 27.5 SE 17 23 1011.9 - 0.2 - Partly cloudy 10 - - - -
25/03:30pm 27.5 ESE 17 21 1012.1 - 0.2 Showers Partly cloudy 10 - - - -
25/03:00pm 27.7 SE 17 23 1012.1 - 0.2 - Partly cloudy 10 - - - -
25/02:30pm 27.8 ESE 18 22 1012.5 - 0.2 - Partly cloudy 10 - - - -
25/02:00pm 28.0 ESE 18 25 1012.8 - 0.2 Fine Mostly cloudy 15 - - - -
25/01:30pm 28.3 ESE 19 24 1012.7 - 0.2 - Mostly clear 10 - - - -
25/01:00pm 28.1 ESE 18 26 1013.0 - 0.2 - Mostly clear 10 - - - -
25/12:30pm 27.2 ESE 17 23 1013.3 - 0.0 - Partly cloudy 10 - - - -
25/12:13pm 26.1 ESE 19 27 1013.6 - 0.0 Showers Partly cloudy 4 - - - -
25/12:00pm 27.7 ESE 19 25 1013.5 - 0.0 Showers Partly cloudy 10 - - - -
25/11:30am 27.9 ESE 19 25 1013.5 - 0.0 - Mostly clear 10 - - - -
25/11:00am 27.7 ESE 17 23 1013.8 - 10.2 Fine Partly cloudy 15 - - - -
25/10:30am 27.9 ESE 17 24 1013.7 - 10.2 - Mostly clear 10 - - - -
25/10:00am 27.4 ESE 16 22 1013.5 - 10.2 - Mostly clear 10 - - - -
25/09:30am 27.3 ESE 17 23 1013.3 - 10.2 - Mostly clear 10 - - - -
25/09:00am 27.0 ESE 17 25 1013.1 - 10.0 - Mostly clear 10 - - - -
25/08:30am 26.3 ESE 18 23 1012.8 - 10.0 - Mostly clear 10 - - - -
25/08:00am 26.3 ESE 15 20 1012.4 - 10.0 Recent precip. Mostly cloudy 17 - - - -
25/07:30am 26.7 ESE 15 22 1012.2 - 10.0 - Mostly clear 10 - - - -
25/07:00am 26.6 ESE 15 20 1011.9 - 10.0 - Mostly clear 10 - - - -
25/06:30am 26.6 ESE 17 23 1011.6 - 10.0 - Partly cloudy 10 - - - -
25/06:00am 26.5 E 15 20 1011.7 - 10.0 - Partly cloudy 10 - - - -
25/05:30am 26.2 E 13 19 1011.8 - 10.0 - Partly cloudy 10 - - - -
25/05:00am 25.0 E 11 15 1011.9 - 10.0 - Cloudy 10 - - - -
25/04:30am 24.9 E 14 19 1012.2 - 10.0 - Partly cloudy 9 - - - -
25/04:22am 24.8 E 15 20 1012.3 - 10.0 - Partly cloudy 10 - - - -
25/04:00am 25.2 E 14 21 1012.5 - 9.8 - Partly cloudy 5 - - - -
25/03:51am 25.2 E 15 21 1012.4 - 9.8 - Partly cloudy 6 - - - -
25/03:30am 25.5 E 15 22 1012.4 - 9.8 - Partly cloudy 10 - - - -
25/03:14am 25.6 E 14 19 1012.6 - 9.6 - Partly cloudy 10 - - - -
25/03:00am 25.6 ESE 17 24 1012.5 - 9.4 - Partly cloudy 2 - - - -
25/02:51am 26.0 ESE 15 24 1012.5 - 7.6 - Partly cloudy 5 - - - -
25/02:48am 26.1 ESE 14 19 1012.4 - 6.4 - Partly cloudy 10 - - - -
25/02:30am 25.0 SE 13 19 1012.6 - 6.4 - Partly cloudy 2 - - - -
25/02:00am 25.3 ESE 11 16 1013.1 - 3.2 - Cloudy 6 - - - -
25/01:54am 25.1 ESE 14 16 1013.2 - 3.0 - Partly cloudy 5 - - - -
25/01:47am 25.2 E 20 25 1013.2 - 2.6 - Partly cloudy 6 - - - -
25/01:44am 25.3 E 21 25 1013.1 - 2.6 - Partly cloudy 10 - - - -
25/01:30am 25.4 ENE 17 25 1013.3 - 2.6 - Partly cloudy 6 - - - -
25/01:09am 25.5 E 21 26 1013.2 - 0.8 - Partly cloudy 6 - - - -
25/01:00am 25.9 E 19 22 1013.3 - 0.8 - Partly cloudy 10 - - - -
25/12:58am 26.3 ESE 15 25 1013.3 - 0.8 - Partly cloudy 10 - - - -
25/12:30am 26.7 ESE 13 17 1013.3 - 0.8 - Partly cloudy 10 - - - -
25/12:00am 26.3 E 13 18 1013.6 - 0.8 - Partly cloudy 10 - - - -
 
Date/Time
WST
Temp

°C
Wind Pressure Rain
since 9am
mm
Weather Cloud Vis
km
Sea
Height
m
Swell
Dir
 
Speed
knots
Gust
knots
hPa Trend Height
m
Period
s
Dir
24/11:30pm 26.1 ESE 13 18 1013.7 - 0.8 - - 10 - - - -
24/11:22pm 25.8 ESE 14 20 1013.6 - 0.8 - Partly cloudy 10 - - - -
24/11:00pm 26.5 ESE 16 23 1013.6 - 0.0 - Cloudy 6 - - - -
24/10:30pm 27.3 ESE 14 19 1013.6 - 0.0 - Partly cloudy 10 - - - -
24/10:00pm 27.3 E 13 19 1013.7 - 0.0 - Partly cloudy 10 - - - -
24/09:30pm 27.2 E 13 19 1013.5 - 0.0 - Partly cloudy 10 - - - -
24/09:00pm 27.1 ESE 14 19 1013.2 - 0.0 - Partly cloudy 10 - - - -
24/08:30pm 27.0 ESE 11 17 1012.8 - 0.0 - Cloudy 10 - - - -
24/08:00pm 26.9 E 13 19 1012.5 - 0.0 - Mostly cloudy 10 - - - -
24/07:30pm 26.9 ESE 13 19 1012.3 - 0.0 - Partly cloudy 10 - - - -
24/07:00pm 27.0 ESE 14 20 1012.1 - 0.0 - Partly cloudy 10 - - - -
24/06:30pm 27.2 ESE 13 18 1011.9 - 0.0 - Partly cloudy 10 - - - -
24/06:00pm 27.2 ESE 15 18 1011.9 - 0.0 - Mostly clear 10 - - - -
24/05:30pm 28.3 E 12 15 1011.7 - 0.0 - Partly cloudy 10 - - - -
24/05:00pm 28.2 E 12 16 1011.4 - 0.0 Fine Partly cloudy 25 - - - -
24/04:30pm 27.9 ESE 12 16 1011.5 - 0.0 - Mostly clear 10 - - - -
24/04:00pm 28.2 ESE 11 15 1011.4 - 0.0 - Mostly clear 10 - - - -
24/03:30pm 28.1 ESE 15 19 1011.5 - 0.0 - Mostly clear 10 - - - -
24/03:00pm 27.9 ESE 15 20 1011.8 - 0.0 - Partly cloudy 10 - - - -
24/02:30pm 28.3 SE 16 20 1012.2 - 0.0 - Partly cloudy 10 - - - -
24/02:00pm 28.0 SE 15 19 1012.5 - 0.0 Fine Mostly cloudy 25 - - - -
24/01:30pm 28.2 SE 14 18 1012.8 - 0.0 - Mostly clear 10 - - - -
24/01:00pm 28.4 SE 13 17 1013.2 - 0.0 - Mostly clear 10 - - - -
24/12:30pm 28.3 SE 14 18 1013.3 - 0.0 - Mostly clear 10 - - - -
24/12:00pm 28.3 SE 13 17 1013.5 - 0.0 - Mostly clear 10 - - - -
24/11:30am 28.7 SE 12 15 1013.6 - 0.0 - Mostly clear 10 - - - -
24/11:00am 28.6 SE 11 15 1013.7 - 0.0 Distant precip. Partly cloudy 27 - - - -
24/10:30am 28.1 SE 11 14 1013.7 - 0.0 - Mostly clear 10 - - - -
24/10:00am 28.1 SE 11 15 1013.6 - 0.0 - Mostly clear 10 - - - -
24/09:30am 28.2 SE 11 13 1013.3 - 0.0 - Mostly clear 10 - - - -
24/09:00am 27.6 SE 10 13 1013.1 - 0.0 - Mostly clear 10 - - - -
24/08:30am 27.4 ESE 10 13 1012.7 - 0.0 - Mostly clear 10 - - - -
24/08:00am 26.9 ESE 10 13 1012.6 - 0.0 Fine Partly cloudy 25 - - - -
24/07:30am 26.9 ESE 9 11 1012.3 - 0.0 - Mostly clear 10 - - - -
24/07:00am 26.9 ESE 10 12 1012.1 - 0.0 - Mostly clear 10 - - - -
24/06:30am 26.9 ESE 9 12 1012.0 - 0.0 - - 10 - - - -
24/06:00am 27.0 ESE 10 14 1011.9 - 0.0 - Partly cloudy 10 - - - -
24/05:30am 26.9 SE 8 12 1011.9 - 0.0 - Partly cloudy 10 - - - -
24/05:00am 26.0 SE 9 11 1012.0 - 0.0 - Partly cloudy 10 - - - -
24/04:30am 26.6 ESE 11 14 1011.9 - 0.0 - Partly cloudy 10 - - - -
24/04:00am 26.6 ESE 11 14 1012.2 - 0.0 - Partly cloudy 10 - - - -
24/03:30am 27.2 ESE 11 14 1012.5 - 0.0 - Partly cloudy 10 - - - -
24/03:00am 27.2 ESE 11 13 1012.7 - 0.0 - Partly cloudy 10 - - - -
24/02:30am 27.3 SE 11 14 1012.9 - 0.0 - Partly cloudy 10 - - - -
24/02:00am 27.4 ESE 12 15 1013.0 - 0.0 - Partly cloudy 10 - - - -
24/01:30am 27.3 ESE 10 13 1013.2 - 0.0 - Partly cloudy 10 - - - -
24/01:00am 27.4 ESE 11 14 1013.4 - 0.0 - Partly cloudy 10 - - - -
24/12:30am 27.4 ESE 12 15 1013.7 - 0.0 - Partly cloudy 10 - - - -
24/12:00am 27.5 SE 11 14 1013.7 - 0.0 - Partly cloudy 10 - - - -
 
Date/Time
WST
Temp

°C
Wind Pressure Rain
since 9am
mm
Weather Cloud Vis
km
Sea
Height
m
Swell
Dir
 
Speed
knots
Gust
knots
hPa Trend Height
m
Period
s
Dir
23/11:30pm 27.6 ESE 11 14 1013.7 - 0.0 - Partly cloudy 10 - - - -
23/11:00pm 27.6 SE 13 16 1013.6 - 0.0 - Partly cloudy 10 - - - -
23/10:30pm 27.6 SE 12 16 1013.4 - 0.0 - - 10 - - - -
23/10:00pm 27.5 SE 11 16 1013.4 - 0.0 - Partly cloudy 10 - - - -
23/09:30pm 27.5 SE 10 13 1013.1 - 0.0 - Partly cloudy 10 - - - -
23/09:02pm 27.6 SE 10 14 1012.9 - 0.0 - Partly cloudy 10 - - - -
23/09:00pm 27.5 SE 10 13 1012.8 - 0.0 - Partly cloudy 10 - - - -
23/08:44pm 27.6 SE 11 14 1012.6 - 0.0 - Partly cloudy 6 - - - -
23/08:30pm 27.6 SE 13 16 1012.4 - 0.0 - Partly cloudy 10 - - - -
23/08:00pm 27.6 SE 11 16 1012.1 - 0.0 - Partly cloudy 10 - - - -
23/07:30pm 27.6 SE 12 15 1011.8 - 0.0 - Partly cloudy 10 - - - -
23/07:00pm 27.8 SE 11 14 1011.8 - 0.0 - Partly cloudy 10 - - - -
23/06:30pm 28.0 SE 12 15 1011.7 - 0.0 - Partly cloudy 10 - - - -
23/06:00pm 28.4 ESE 11 14 1011.6 - 0.0 - Mostly clear 10 - - - -
23/05:30pm 28.6 SE 11 15 1011.6 - 0.0 - Mostly clear 10 - - - -
23/05:00pm 29.0 SE 11 16 1011.7 - 0.0 Fine Partly cloudy 30 - - - -
23/04:30pm 29.0 ESE 12 15 1011.7 - 0.0 - Mostly clear 10 - - - -
23/04:00pm 29.2 ESE 11 14 1011.9 - 0.0 - Mostly clear 10 - - - -
23/03:30pm 29.3 ESE 12 15 1012.0 - 0.0 - Mostly clear 10 - - - -
23/03:00pm 29.0 SE 11 15 1012.2 - 0.0 - Mostly clear 10 - - - -
23/02:30pm 29.3 ESE 11 15 1012.5 - 0.0 - Mostly clear 10 - - - -
23/02:00pm 29.6 ESE 11 15 1013.1 - 0.0 Fine Mostly clear 25 - - - -
23/01:30pm 29.2 ESE 12 15 1013.3 - 0.0 - Mostly clear 10 - - - -
23/01:00pm 29.4 SE 12 15 1013.7 - 0.0 - Mostly clear 10 - - - -
23/12:30pm 29.0 SE 12 15 1013.9 - 0.0 - Mostly clear 10 - - - -
23/12:00pm 29.0 ESE 12 15 1014.1 - 0.0 - Mostly clear 10 - - - -
23/11:30am 29.4 ESE 10 15 1014.3 - 0.0 - Mostly clear 10 - - - -
23/11:00am 29.0 ESE 11 16 1014.6 - 0.0 Fine Mostly clear 25 - - - -
23/10:30am 28.4 ESE 11 16 1014.5 - 0.0 - Partly cloudy 10 - - - -
23/10:00am 28.3 ESE 13 16 1014.2 - 0.0 - Mostly clear 10 - - - -
23/09:30am 28.3 ESE 12 16 1014.0 - 0.0 - Mostly clear 10 - - - -
23/09:00am 28.0 ESE 12 16 1013.5 - 0.0 - Mostly clear 10 - - - -
23/08:30am 27.6 ESE 12 17 1013.3 - 0.0 - Mostly clear 10 - - - -
23/08:00am 27.4 ESE 12 18 1013.1 - 0.0 Fine Mostly clear 20 - - - -
23/07:30am 27.3 ESE 11 15 1012.7 - 0.0 - Mostly clear 10 - - - -
23/07:00am 27.4 ESE 12 16 1012.5 - 0.0 - Partly cloudy 10 - - - -
23/06:30am 27.3 ESE 12 16 1012.1 - 0.0 - Partly cloudy 10 - - - -
23/06:00am 27.2 ESE 13 17 1012.0 - 0.0 - Partly cloudy 10 - - - -
23/05:30am 27.3 ESE 14 18 1011.9 - 0.0 - Partly cloudy 10 - - - -

Other Formats:

Comma delimited format used in spreadsheet applications
http://www.bom.gov.au/fwo/IDW60701/IDW60701.96996.axf

JavaScript Object Notation format (JSON) in row-major order
http://www.bom.gov.au/fwo/IDW60701/IDW60701.96996.json